sensor_id;sensor_type;location;lat;lon;timestamp;P1;durP1;ratioP1;P2;durP2;ratioP2
78895;SDS011;68284;59.124;37.910;2023-07-28T00:00:17;3.47;;;2.78;;
78895;SDS011;68284;59.124;37.910;2023-07-28T00:02:43;4.20;;;2.58;;
78895;SDS011;68284;59.124;37.910;2023-07-28T00:05:09;4.07;;;3.15;;
78895;SDS011;68284;59.124;37.910;2023-07-28T00:07:36;7.07;;;3.60;;
78895;SDS011;68284;59.124;37.910;2023-07-28T00:10:02;3.58;;;3.15;;
78895;SDS011;68284;59.124;37.910;2023-07-28T00:12:29;3.50;;;2.70;;
78895;SDS011;68284;59.124;37.910;2023-07-28T00:14:55;3.78;;;2.90;;
78895;SDS011;68284;59.124;37.910;2023-07-28T00:17:21;4.22;;;2.75;;
78895;SDS011;68284;59.124;37.910;2023-07-28T00:19:48;4.40;;;3.10;;
78895;SDS011;68284;59.124;37.910;2023-07-28T00:22:14;2.92;;;2.63;;
78895;SDS011;68284;59.124;37.910;2023-07-28T00:24:40;2.85;;;2.30;;
78895;SDS011;68284;59.124;37.910;2023-07-28T00:27:06;3.38;;;2.58;;
78895;SDS011;68284;59.124;37.910;2023-07-28T00:29:33;3.55;;;3.25;;
78895;SDS011;68284;59.124;37.910;2023-07-28T00:32:01;4.53;;;2.47;;
78895;SDS011;68284;59.124;37.910;2023-07-28T00:34:28;3.78;;;2.72;;
78895;SDS011;68284;59.124;37.910;2023-07-28T00:36:54;2.28;;;2.05;;
78895;SDS011;68284;59.124;37.910;2023-07-28T00:39:20;3.55;;;2.80;;
78895;SDS011;68284;59.124;37.910;2023-07-28T00:41:46;4.18;;;3.75;;
78895;SDS011;68284;59.124;37.910;2023-07-28T00:44:13;2.20;;;2.00;;
78895;SDS011;68284;59.124;37.910;2023-07-28T00:46:40;2.97;;;2.67;;
78895;SDS011;68284;59.124;37.910;2023-07-28T00:49:06;4.53;;;3.08;;
78895;SDS011;68284;59.124;37.910;2023-07-28T00:51:33;3.50;;;3.20;;
78895;SDS011;68284;59.124;37.910;2023-07-28T00:54:01;3.55;;;2.03;;
78895;SDS011;68284;59.124;37.910;2023-07-28T00:56:29;3.33;;;3.03;;
78895;SDS011;68284;59.124;37.910;2023-07-28T00:58:56;2.75;;;2.55;;
78895;SDS011;68284;59.124;37.910;2023-07-28T01:01:23;3.67;;;2.90;;
78895;SDS011;68284;59.124;37.910;2023-07-28T01:03:50;2.92;;;2.67;;
78895;SDS011;68284;59.124;37.910;2023-07-28T01:06:27;3.13;;;2.83;;
78895;SDS011;68284;59.124;37.910;2023-07-28T01:09:02;4.95;;;3.58;;
78895;SDS011;68284;59.124;37.910;2023-07-28T01:11:31;4.47;;;3.00;;
78895;SDS011;68284;59.124;37.910;2023-07-28T01:13:57;3.65;;;3.10;;
78895;SDS011;68284;59.124;37.910;2023-07-28T01:16:24;3.70;;;2.72;;
78895;SDS011;68284;59.124;37.910;2023-07-28T01:18:50;6.20;;;2.58;;
78895;SDS011;68284;59.124;37.910;2023-07-28T01:21:20;3.42;;;3.13;;
78895;SDS011;68284;59.124;37.910;2023-07-28T01:24:09;6.18;;;3.15;;
78895;SDS011;68284;59.124;37.910;2023-07-28T01:26:49;3.70;;;3.40;;
78895;SDS011;68284;59.124;37.910;2023-07-28T01:29:16;2.80;;;2.35;;
78895;SDS011;68284;59.124;37.910;2023-07-28T01:31:47;3.42;;;3.13;;
78895;SDS011;68284;59.124;37.910;2023-07-28T01:34:14;3.75;;;2.70;;
78895;SDS011;68284;59.124;37.910;2023-07-28T01:36:40;2.38;;;2.00;;
78895;SDS011;68284;59.124;37.910;2023-07-28T01:39:07;3.67;;;2.40;;
78895;SDS011;68284;59.124;37.910;2023-07-28T01:41:33;2.25;;;2.05;;
78895;SDS011;68284;59.124;37.910;2023-07-28T01:43:59;2.60;;;2.40;;
78895;SDS011;68284;59.124;37.910;2023-07-28T01:46:25;2.80;;;2.28;;
78895;SDS011;68284;59.124;37.910;2023-07-28T01:48:52;3.17;;;2.50;;
78895;SDS011;68284;59.124;37.910;2023-07-28T01:51:18;3.25;;;2.90;;
78895;SDS011;68284;59.124;37.910;2023-07-28T01:53:44;3.00;;;2.60;;
78895;SDS011;68284;59.124;37.910;2023-07-28T01:56:10;4.63;;;3.20;;
78895;SDS011;68284;59.124;37.910;2023-07-28T01:58:37;2.63;;;2.20;;
78895;SDS011;68284;59.124;37.910;2023-07-28T02:01:03;2.25;;;1.92;;
78895;SDS011;68284;59.124;37.910;2023-07-28T02:03:29;3.55;;;3.25;;
78895;SDS011;68284;59.124;37.910;2023-07-28T02:05:55;3.40;;;3.10;;
78895;SDS011;68284;59.124;37.910;2023-07-28T02:08:22;3.15;;;2.85;;
78895;SDS011;68284;59.124;37.910;2023-07-28T02:10:49;3.38;;;2.45;;
78895;SDS011;68284;59.124;37.910;2023-07-28T02:13:15;2.70;;;2.50;;
78895;SDS011;68284;59.124;37.910;2023-07-28T02:15:41;2.95;;;2.70;;
78895;SDS011;68284;59.124;37.910;2023-07-28T02:18:07;2.90;;;2.60;;
78895;SDS011;68284;59.124;37.910;2023-07-28T02:20:34;3.33;;;3.00;;
78895;SDS011;68284;59.124;37.910;2023-07-28T02:23:01;2.80;;;2.42;;
78895;SDS011;68284;59.124;37.910;2023-07-28T02:25:28;3.50;;;2.70;;
78895;SDS011;68284;59.124;37.910;2023-07-28T02:27:54;2.50;;;2.20;;
78895;SDS011;68284;59.124;37.910;2023-07-28T02:30:20;3.60;;;2.67;;
78895;SDS011;68284;59.124;37.910;2023-07-28T02:32:47;2.85;;;2.65;;
78895;SDS011;68284;59.124;37.910;2023-07-28T02:35:13;3.72;;;3.10;;
78895;SDS011;68284;59.124;37.910;2023-07-28T02:37:39;2.85;;;2.55;;
78895;SDS011;68284;59.124;37.910;2023-07-28T02:40:06;3.08;;;2.78;;
78895;SDS011;68284;59.124;37.910;2023-07-28T02:42:33;4.00;;;3.53;;
78895;SDS011;68284;59.124;37.910;2023-07-28T02:45:01;3.53;;;3.22;;
78895;SDS011;68284;59.124;37.910;2023-07-28T02:47:28;6.53;;;2.70;;
78895;SDS011;68284;59.124;37.910;2023-07-28T02:49:54;3.75;;;2.85;;
78895;SDS011;68284;59.124;37.910;2023-07-28T02:52:20;4.43;;;2.75;;
78895;SDS011;68284;59.124;37.910;2023-07-28T02:54:47;4.65;;;4.05;;
78895;SDS011;68284;59.124;37.910;2023-07-28T02:57:13;2.95;;;2.55;;
78895;SDS011;68284;59.124;37.910;2023-07-28T02:59:42;3.35;;;3.00;;
78895;SDS011;68284;59.124;37.910;2023-07-28T03:02:08;5.03;;;2.92;;
78895;SDS011;68284;59.124;37.910;2023-07-28T03:04:35;2.95;;;2.63;;
78895;SDS011;68284;59.124;37.910;2023-07-28T03:07:27;4.22;;;2.65;;
78895;SDS011;68284;59.124;37.910;2023-07-28T03:09:59;3.45;;;3.15;;
78895;SDS011;68284;59.124;37.910;2023-07-28T03:12:25;2.95;;;2.60;;
78895;SDS011;68284;59.124;37.910;2023-07-28T03:14:52;3.88;;;3.30;;
78895;SDS011;68284;59.124;37.910;2023-07-28T03:17:18;3.92;;;3.00;;
78895;SDS011;68284;59.124;37.910;2023-07-28T03:19:44;4.15;;;2.72;;
78895;SDS011;68284;59.124;37.910;2023-07-28T03:22:11;4.15;;;3.50;;
78895;SDS011;68284;59.124;37.910;2023-07-28T03:24:37;2.88;;;2.55;;
78895;SDS011;68284;59.124;37.910;2023-07-28T03:27:03;3.80;;;3.50;;
78895;SDS011;68284;59.124;37.910;2023-07-28T03:29:30;3.85;;;3.20;;
78895;SDS011;68284;59.124;37.910;2023-07-28T03:31:56;4.82;;;3.22;;
78895;SDS011;68284;59.124;37.910;2023-07-28T03:34:23;3.20;;;2.90;;
78895;SDS011;68284;59.124;37.910;2023-07-28T03:36:50;4.97;;;3.58;;
78895;SDS011;68284;59.124;37.910;2023-07-28T03:39:16;4.05;;;3.65;;
78895;SDS011;68284;59.124;37.910;2023-07-28T03:41:46;2.63;;;2.35;;
78895;SDS011;68284;59.124;37.910;2023-07-28T03:44:12;3.72;;;3.05;;
78895;SDS011;68284;59.124;37.910;2023-07-28T03:46:38;6.53;;;3.80;;
78895;SDS011;68284;59.124;37.910;2023-07-28T03:49:04;3.10;;;2.70;;
78895;SDS011;68284;59.124;37.910;2023-07-28T03:51:31;5.80;;;2.97;;
78895;SDS011;68284;59.124;37.910;2023-07-28T03:53:57;3.05;;;2.75;;
78895;SDS011;68284;59.124;37.910;2023-07-28T03:56:23;5.82;;;2.60;;
78895;SDS011;68284;59.124;37.910;2023-07-28T03:58:50;7.40;;;4.32;;
78895;SDS011;68284;59.124;37.910;2023-07-28T04:01:16;3.72;;;3.15;;
78895;SDS011;68284;59.124;37.910;2023-07-28T04:03:43;3.78;;;3.38;;
78895;SDS011;68284;59.124;37.910;2023-07-28T04:06:10;4.85;;;4.22;;
78895;SDS011;68284;59.124;37.910;2023-07-28T04:08:37;4.40;;;3.45;;
78895;SDS011;68284;59.124;37.910;2023-07-28T04:11:04;4.80;;;4.30;;
78895;SDS011;68284;59.124;37.910;2023-07-28T04:13:31;3.67;;;3.22;;
78895;SDS011;68284;59.124;37.910;2023-07-28T04:15:57;6.00;;;3.15;;
78895;SDS011;68284;59.124;37.910;2023-07-28T04:18:23;4.80;;;4.05;;
78895;SDS011;68284;59.124;37.910;2023-07-28T04:20:49;3.67;;;3.28;;
78895;SDS011;68284;59.124;37.910;2023-07-28T04:23:16;4.43;;;3.95;;
78895;SDS011;68284;59.124;37.910;2023-07-28T04:25:42;4.25;;;2.97;;
78895;SDS011;68284;59.124;37.910;2023-07-28T04:28:09;3.75;;;3.20;;
78895;SDS011;68284;59.124;37.910;2023-07-28T04:30:35;5.22;;;3.83;;
78895;SDS011;68284;59.124;37.910;2023-07-28T04:33:01;4.20;;;3.80;;
78895;SDS011;68284;59.124;37.910;2023-07-28T04:38:13;4.82;;;3.80;;
78895;SDS011;68284;59.124;37.910;2023-07-28T04:40:54;4.82;;;3.15;;
78895;SDS011;68284;59.124;37.910;2023-07-28T04:43:26;4.80;;;2.97;;
78895;SDS011;68284;59.124;37.910;2023-07-28T04:45:54;4.30;;;3.67;;
78895;SDS011;68284;59.124;37.910;2023-07-28T04:48:22;5.03;;;3.08;;
78895;SDS011;68284;59.124;37.910;2023-07-28T04:50:49;3.78;;;3.47;;
78895;SDS011;68284;59.124;37.910;2023-07-28T04:53:34;5.55;;;4.30;;
78895;SDS011;68284;59.124;37.910;2023-07-28T04:56:15;4.00;;;3.20;;
78895;SDS011;68284;59.124;37.910;2023-07-28T04:58:41;3.90;;;3.60;;
78895;SDS011;68284;59.124;37.910;2023-07-28T05:01:08;5.63;;;3.50;;
78895;SDS011;68284;59.124;37.910;2023-07-28T05:03:35;4.60;;;3.67;;
78895;SDS011;68284;59.124;37.910;2023-07-28T05:06:31;3.85;;;3.45;;
78895;SDS011;68284;59.124;37.910;2023-07-28T05:08:57;5.97;;;3.55;;
78895;SDS011;68284;59.124;37.910;2023-07-28T05:11:32;5.65;;;3.47;;
78895;SDS011;68284;59.124;37.910;2023-07-28T05:13:58;3.42;;;3.08;;
78895;SDS011;68284;59.124;37.910;2023-07-28T05:16:24;4.00;;;3.70;;
78895;SDS011;68284;59.124;37.910;2023-07-28T05:19:05;4.72;;;3.80;;
78895;SDS011;68284;59.124;37.910;2023-07-28T05:21:51;3.15;;;2.75;;
78895;SDS011;68284;59.124;37.910;2023-07-28T05:24:21;4.22;;;3.83;;
78895;SDS011;68284;59.124;37.910;2023-07-28T05:26:47;4.25;;;3.83;;
78895;SDS011;68284;59.124;37.910;2023-07-28T05:29:15;4.35;;;3.55;;
78895;SDS011;68284;59.124;37.910;2023-07-28T05:31:41;3.95;;;3.55;;
78895;SDS011;68284;59.124;37.910;2023-07-28T05:34:18;5.40;;;3.97;;
78895;SDS011;68284;59.124;37.910;2023-07-28T05:36:46;5.43;;;3.80;;
78895;SDS011;68284;59.124;37.910;2023-07-28T05:39:12;6.72;;;3.75;;
78895;SDS011;68284;59.124;37.910;2023-07-28T05:41:42;4.32;;;3.92;;
78895;SDS011;68284;59.124;37.910;2023-07-28T05:44:10;6.85;;;4.47;;
78895;SDS011;68284;59.124;37.910;2023-07-28T05:46:36;6.13;;;4.63;;
78895;SDS011;68284;59.124;37.910;2023-07-28T05:49:03;8.27;;;3.88;;
78895;SDS011;68284;59.124;37.910;2023-07-28T05:51:29;7.50;;;4.25;;
78895;SDS011;68284;59.124;37.910;2023-07-28T05:53:55;7.93;;;3.60;;
78895;SDS011;68284;59.124;37.910;2023-07-28T05:56:22;8.40;;;4.30;;
78895;SDS011;68284;59.124;37.910;2023-07-28T05:58:49;5.93;;;3.70;;
78895;SDS011;68284;59.124;37.910;2023-07-28T06:01:16;5.88;;;4.43;;
78895;SDS011;68284;59.124;37.910;2023-07-28T06:04:03;4.13;;;3.50;;
78895;SDS011;68284;59.124;37.910;2023-07-28T06:06:33;5.47;;;3.47;;
78895;SDS011;68284;59.124;37.910;2023-07-28T06:08:59;5.68;;;4.20;;
78895;SDS011;68284;59.124;37.910;2023-07-28T06:11:25;4.45;;;4.05;;
78895;SDS011;68284;59.124;37.910;2023-07-28T06:13:52;4.70;;;3.90;;
78895;SDS011;68284;59.124;37.910;2023-07-28T06:16:18;7.35;;;4.22;;
78895;SDS011;68284;59.124;37.910;2023-07-28T06:18:45;5.25;;;3.97;;
78895;SDS011;68284;59.124;37.910;2023-07-28T06:21:18;5.32;;;4.32;;
78895;SDS011;68284;59.124;37.910;2023-07-28T06:23:44;5.57;;;3.88;;
78895;SDS011;68284;59.124;37.910;2023-07-28T06:26:11;8.43;;;4.93;;
78895;SDS011;68284;59.124;37.910;2023-07-28T06:28:39;4.75;;;4.03;;
78895;SDS011;68284;59.124;37.910;2023-07-28T06:31:06;6.25;;;4.47;;
78895;SDS011;68284;59.124;37.910;2023-07-28T06:33:32;5.90;;;4.28;;
78895;SDS011;68284;59.124;37.910;2023-07-28T06:35:58;5.50;;;4.93;;
78895;SDS011;68284;59.124;37.910;2023-07-28T06:38:24;8.88;;;4.68;;
78895;SDS011;68284;59.124;37.910;2023-07-28T06:40:51;10.65;;;5.38;;
78895;SDS011;68284;59.124;37.910;2023-07-28T06:43:18;9.25;;;5.20;;
78895;SDS011;68284;59.124;37.910;2023-07-28T06:45:50;9.05;;;6.22;;
78895;SDS011;68284;59.124;37.910;2023-07-28T06:48:17;6.40;;;4.38;;
78895;SDS011;68284;59.124;37.910;2023-07-28T06:50:43;6.65;;;5.05;;
78895;SDS011;68284;59.124;37.910;2023-07-28T06:53:09;6.53;;;3.95;;
78895;SDS011;68284;59.124;37.910;2023-07-28T06:55:35;5.97;;;5.05;;
78895;SDS011;68284;59.124;37.910;2023-07-28T06:58:07;6.70;;;4.82;;
78895;SDS011;68284;59.124;37.910;2023-07-28T07:00:35;6.45;;;5.65;;
78895;SDS011;68284;59.124;37.910;2023-07-28T07:03:01;6.97;;;5.00;;
78895;SDS011;68284;59.124;37.910;2023-07-28T07:05:27;8.00;;;6.43;;
78895;SDS011;68284;59.124;37.910;2023-07-28T07:07:54;8.30;;;5.93;;
78895;SDS011;68284;59.124;37.910;2023-07-28T07:10:22;8.27;;;6.28;;
78895;SDS011;68284;59.124;37.910;2023-07-28T07:12:49;8.43;;;6.45;;
78895;SDS011;68284;59.124;37.910;2023-07-28T07:15:15;8.38;;;6.22;;
78895;SDS011;68284;59.124;37.910;2023-07-28T07:17:41;8.77;;;7.88;;
78895;SDS011;68284;59.124;37.910;2023-07-28T07:20:08;8.50;;;6.85;;
78895;SDS011;68284;59.124;37.910;2023-07-28T07:22:36;7.78;;;6.28;;
78895;SDS011;68284;59.124;37.910;2023-07-28T07:25:03;7.95;;;6.57;;
78895;SDS011;68284;59.124;37.910;2023-07-28T07:27:31;8.18;;;7.32;;
78895;SDS011;68284;59.124;37.910;2023-07-28T07:29:58;10.10;;;7.38;;
78895;SDS011;68284;59.124;37.910;2023-07-28T07:32:24;10.30;;;7.35;;
78895;SDS011;68284;59.124;37.910;2023-07-28T07:34:50;9.05;;;6.43;;
78895;SDS011;68284;59.124;37.910;2023-07-28T07:37:18;9.43;;;8.43;;
78895;SDS011;68284;59.124;37.910;2023-07-28T07:39:45;10.25;;;6.45;;
78895;SDS011;68284;59.124;37.910;2023-07-28T07:42:12;8.43;;;7.35;;
78895;SDS011;68284;59.124;37.910;2023-07-28T07:44:39;8.55;;;6.80;;
78895;SDS011;68284;59.124;37.910;2023-07-28T07:47:12;9.82;;;6.60;;
78895;SDS011;68284;59.124;37.910;2023-07-28T07:49:40;10.88;;;7.32;;
78895;SDS011;68284;59.124;37.910;2023-07-28T07:52:07;10.02;;;7.65;;
78895;SDS011;68284;59.124;37.910;2023-07-28T07:54:35;9.55;;;8.55;;
78895;SDS011;68284;59.124;37.910;2023-07-28T07:57:01;10.38;;;7.80;;
78895;SDS011;68284;59.124;37.910;2023-07-28T07:59:28;9.95;;;6.97;;
78895;SDS011;68284;59.124;37.910;2023-07-28T08:01:58;9.75;;;8.75;;
78895;SDS011;68284;59.124;37.910;2023-07-28T08:04:26;9.85;;;8.85;;
78895;SDS011;68284;59.124;37.910;2023-07-28T08:06:53;12.82;;;7.53;;
78895;SDS011;68284;59.124;37.910;2023-07-28T08:09:20;9.75;;;8.55;;
78895;SDS011;68284;59.124;37.910;2023-07-28T08:11:46;10.38;;;8.40;;
78895;SDS011;68284;59.124;37.910;2023-07-28T08:14:12;9.98;;;8.40;;
78895;SDS011;68284;59.124;37.910;2023-07-28T08:16:38;12.40;;;9.52;;
78895;SDS011;68284;59.124;37.910;2023-07-28T08:19:05;12.30;;;9.00;;
78895;SDS011;68284;59.124;37.910;2023-07-28T08:21:31;9.93;;;7.40;;
78895;SDS011;68284;59.124;37.910;2023-07-28T08:24:05;9.52;;;8.45;;
78895;SDS011;68284;59.124;37.910;2023-07-28T08:26:31;11.15;;;9.35;;
78895;SDS011;68284;59.124;37.910;2023-07-28T08:28:57;8.65;;;7.07;;
78895;SDS011;68284;59.124;37.910;2023-07-28T08:31:24;9.27;;;8.25;;
78895;SDS011;68284;59.124;37.910;2023-07-28T08:33:50;9.65;;;7.47;;
78895;SDS011;68284;59.124;37.910;2023-07-28T08:36:16;10.07;;;8.98;;
78895;SDS011;68284;59.124;37.910;2023-07-28T08:38:43;11.25;;;8.80;;
78895;SDS011;68284;59.124;37.910;2023-07-28T08:41:11;9.57;;;8.40;;
78895;SDS011;68284;59.124;37.910;2023-07-28T08:43:38;10.32;;;8.95;;
78895;SDS011;68284;59.124;37.910;2023-07-28T08:46:04;10.75;;;7.95;;
78895;SDS011;68284;59.124;37.910;2023-07-28T08:48:31;9.23;;;8.23;;
78895;SDS011;68284;59.124;37.910;2023-07-28T08:50:57;11.20;;;9.70;;
78895;SDS011;68284;59.124;37.910;2023-07-28T08:53:23;11.57;;;9.60;;
78895;SDS011;68284;59.124;37.910;2023-07-28T08:55:49;11.95;;;8.50;;
78895;SDS011;68284;59.124;37.910;2023-07-28T08:58:20;10.85;;;8.82;;
78895;SDS011;68284;59.124;37.910;2023-07-28T09:00:49;10.68;;;9.52;;
78895;SDS011;68284;59.124;37.910;2023-07-28T09:03:17;11.63;;;8.75;;
78895;SDS011;68284;59.124;37.910;2023-07-28T09:05:44;11.85;;;8.32;;
78895;SDS011;68284;59.124;37.910;2023-07-28T09:08:12;11.40;;;8.45;;
78895;SDS011;68284;59.124;37.910;2023-07-28T09:10:48;14.77;;;9.60;;
78895;SDS011;68284;59.124;37.910;2023-07-28T09:13:16;15.25;;;9.95;;
78895;SDS011;68284;59.124;37.910;2023-07-28T09:15:44;11.52;;;8.77;;
78895;SDS011;68284;59.124;37.910;2023-07-28T09:18:11;10.48;;;9.07;;
78895;SDS011;68284;59.124;37.910;2023-07-28T09:20:39;10.88;;;8.57;;
78895;SDS011;68284;59.124;37.910;2023-07-28T09:23:10;13.15;;;9.35;;
78895;SDS011;68284;59.124;37.910;2023-07-28T09:25:41;12.13;;;9.55;;
78895;SDS011;68284;59.124;37.910;2023-07-28T09:28:07;11.60;;;8.38;;
78895;SDS011;68284;59.124;37.910;2023-07-28T09:30:47;12.70;;;9.80;;
78895;SDS011;68284;59.124;37.910;2023-07-28T09:33:30;11.10;;;9.52;;
78895;SDS011;68284;59.124;37.910;2023-07-28T09:36:06;11.98;;;8.32;;
78895;SDS011;68284;59.124;37.910;2023-07-28T09:38:42;11.50;;;9.23;;
78895;SDS011;68284;59.124;37.910;2023-07-28T09:41:09;12.27;;;8.65;;
78895;SDS011;68284;59.124;37.910;2023-07-28T09:43:37;13.82;;;8.65;;
78895;SDS011;68284;59.124;37.910;2023-07-28T09:46:05;10.40;;;7.90;;
78895;SDS011;68284;59.124;37.910;2023-07-28T09:48:34;11.07;;;9.25;;
78895;SDS011;68284;59.124;37.910;2023-07-28T09:51:05;12.68;;;9.52;;
78895;SDS011;68284;59.124;37.910;2023-07-28T09:53:35;11.10;;;9.60;;
78895;SDS011;68284;59.124;37.910;2023-07-28T09:56:10;11.38;;;7.85;;
78895;SDS011;68284;59.124;37.910;2023-07-28T09:58:43;13.18;;;9.88;;
78895;SDS011;68284;59.124;37.910;2023-07-28T10:01:14;9.98;;;9.07;;
78895;SDS011;68284;59.124;37.910;2023-07-28T10:03:41;11.15;;;8.50;;
78895;SDS011;68284;59.124;37.910;2023-07-28T10:06:08;11.98;;;7.90;;
78895;SDS011;68284;59.124;37.910;2023-07-28T10:08:35;17.10;;;9.40;;
78895;SDS011;68284;59.124;37.910;2023-07-28T10:11:03;11.50;;;9.48;;
78895;SDS011;68284;59.124;37.910;2023-07-28T10:13:39;11.90;;;8.65;;
78895;SDS011;68284;59.124;37.910;2023-07-28T10:16:09;9.30;;;8.30;;
78895;SDS011;68284;59.124;37.910;2023-07-28T10:18:36;9.50;;;8.30;;
78895;SDS011;68284;59.124;37.910;2023-07-28T10:21:04;12.57;;;10.57;;
78895;SDS011;68284;59.124;37.910;2023-07-28T10:23:37;12.10;;;8.90;;
78895;SDS011;68284;59.124;37.910;2023-07-28T10:26:03;11.77;;;9.43;;
78895;SDS011;68284;59.124;37.910;2023-07-28T10:28:38;10.95;;;8.55;;
78895;SDS011;68284;59.124;37.910;2023-07-28T10:31:08;12.20;;;9.30;;
78895;SDS011;68284;59.124;37.910;2023-07-28T10:33:40;11.55;;;10.00;;
78895;SDS011;68284;59.124;37.910;2023-07-28T10:38:37;11.63;;;8.35;;
78895;SDS011;68284;59.124;37.910;2023-07-28T10:41:07;10.98;;;9.88;;
78895;SDS011;68284;59.124;37.910;2023-07-28T10:43:39;9.63;;;8.07;;
78895;SDS011;68284;59.124;37.910;2023-07-28T10:46:10;9.70;;;8.75;;
78895;SDS011;68284;59.124;37.910;2023-07-28T10:48:43;15.38;;;8.93;;
78895;SDS011;68284;59.124;37.910;2023-07-28T10:51:12;13.32;;;8.13;;
78895;SDS011;68284;59.124;37.910;2023-07-28T10:53:45;13.13;;;8.25;;
78895;SDS011;68284;59.124;37.910;2023-07-28T10:56:12;14.50;;;9.13;;
78895;SDS011;68284;59.124;37.910;2023-07-28T10:58:39;14.13;;;9.63;;
78895;SDS011;68284;59.124;37.910;2023-07-28T11:01:05;12.77;;;8.93;;
78895;SDS011;68284;59.124;37.910;2023-07-28T11:03:33;13.13;;;9.60;;
78895;SDS011;68284;59.124;37.910;2023-07-28T11:05:59;10.07;;;8.98;;
78895;SDS011;68284;59.124;37.910;2023-07-28T11:08:26;10.48;;;9.40;;
78895;SDS011;68284;59.124;37.910;2023-07-28T11:10:52;12.38;;;9.73;;
78895;SDS011;68284;59.124;37.910;2023-07-28T11:13:19;11.55;;;9.05;;
78895;SDS011;68284;59.124;37.910;2023-07-28T11:15:45;12.00;;;10.30;;
78895;SDS011;68284;59.124;37.910;2023-07-28T11:18:14;16.33;;;10.77;;
78895;SDS011;68284;59.124;37.910;2023-07-28T11:20:41;14.63;;;9.98;;
78895;SDS011;68284;59.124;37.910;2023-07-28T11:23:08;14.65;;;10.05;;
78895;SDS011;68284;59.124;37.910;2023-07-28T11:25:34;11.65;;;9.73;;
78895;SDS011;68284;59.124;37.910;2023-07-28T11:28:02;11.93;;;9.70;;
78895;SDS011;68284;59.124;37.910;2023-07-28T11:30:31;14.00;;;10.93;;
78895;SDS011;68284;59.124;37.910;2023-07-28T11:33:01;23.13;;;10.32;;
78895;SDS011;68284;59.124;37.910;2023-07-28T11:35:29;11.48;;;10.23;;
78895;SDS011;68284;59.124;37.910;2023-07-28T11:37:55;12.68;;;11.38;;
78895;SDS011;68284;59.124;37.910;2023-07-28T11:40:22;14.70;;;9.63;;
78895;SDS011;68284;59.124;37.910;2023-07-28T11:42:53;11.68;;;10.57;;
78895;SDS011;68284;59.124;37.910;2023-07-28T11:45:21;10.52;;;9.13;;
78895;SDS011;68284;59.124;37.910;2023-07-28T11:47:55;11.23;;;9.13;;
78895;SDS011;68284;59.124;37.910;2023-07-28T11:50:36;11.88;;;10.18;;
78895;SDS011;68284;59.124;37.910;2023-07-28T11:53:04;10.82;;;8.90;;
78895;SDS011;68284;59.124;37.910;2023-07-28T11:55:35;16.88;;;8.82;;
78895;SDS011;68284;59.124;37.910;2023-07-28T11:58:02;13.98;;;9.23;;
78895;SDS011;68284;59.124;37.910;2023-07-28T12:00:31;10.48;;;8.50;;
78895;SDS011;68284;59.124;37.910;2023-07-28T12:05:32;12.40;;;9.15;;
78895;SDS011;68284;59.124;37.910;2023-07-28T12:07:59;9.80;;;8.02;;
78895;SDS011;68284;59.124;37.910;2023-07-28T12:10:27;11.65;;;8.30;;
78895;SDS011;68284;59.124;37.910;2023-07-28T12:12:53;10.95;;;9.85;;
78895;SDS011;68284;59.124;37.910;2023-07-28T12:20:41;12.13;;;8.75;;
78895;SDS011;68284;59.124;37.910;2023-07-28T12:23:15;13.73;;;10.38;;
78895;SDS011;68284;59.124;37.910;2023-07-28T12:25:45;12.45;;;8.98;;
78895;SDS011;68284;59.124;37.910;2023-07-28T12:28:12;13.38;;;9.30;;
78895;SDS011;68284;59.124;37.910;2023-07-28T12:30:39;12.20;;;9.80;;
78895;SDS011;68284;59.124;37.910;2023-07-28T12:33:06;12.40;;;8.27;;
78895;SDS011;68284;59.124;37.910;2023-07-28T12:35:33;9.98;;;8.23;;
78895;SDS011;68284;59.124;37.910;2023-07-28T12:38:01;13.07;;;9.23;;
78895;SDS011;68284;59.124;37.910;2023-07-28T12:40:30;13.50;;;9.15;;
78895;SDS011;68284;59.124;37.910;2023-07-28T12:42:58;9.73;;;8.73;;
78895;SDS011;68284;59.124;37.910;2023-07-28T12:45:26;10.60;;;9.45;;
78895;SDS011;68284;59.124;37.910;2023-07-28T12:47:52;9.60;;;8.60;;
78895;SDS011;68284;59.124;37.910;2023-07-28T12:50:20;16.85;;;9.18;;
78895;SDS011;68284;59.124;37.910;2023-07-28T12:52:47;10.00;;;8.13;;
78895;SDS011;68284;59.124;37.910;2023-07-28T12:55:14;12.77;;;7.80;;
78895;SDS011;68284;59.124;37.910;2023-07-28T12:57:41;13.43;;;8.38;;
78895;SDS011;68284;59.124;37.910;2023-07-28T13:00:08;10.57;;;8.82;;
78895;SDS011;68284;59.124;37.910;2023-07-28T13:02:39;7.57;;;6.82;;
78895;SDS011;68284;59.124;37.910;2023-07-28T13:05:07;8.25;;;7.30;;
78895;SDS011;68284;59.124;37.910;2023-07-28T13:07:36;13.00;;;8.32;;
78895;SDS011;68284;59.124;37.910;2023-07-28T13:10:05;9.52;;;6.97;;
78895;SDS011;68284;59.124;37.910;2023-07-28T13:12:36;8.40;;;7.05;;
78895;SDS011;68284;59.124;37.910;2023-07-28T13:15:03;11.18;;;8.75;;
78895;SDS011;68284;59.124;37.910;2023-07-28T13:17:30;8.48;;;7.68;;
78895;SDS011;68284;59.124;37.910;2023-07-28T13:19:57;11.60;;;7.45;;
78895;SDS011;68284;59.124;37.910;2023-07-28T13:22:23;8.80;;;7.15;;
78895;SDS011;68284;59.124;37.910;2023-07-28T13:24:50;8.77;;;7.88;;
78895;SDS011;68284;59.124;37.910;2023-07-28T13:27:16;9.23;;;8.32;;
78895;SDS011;68284;59.124;37.910;2023-07-28T13:29:43;13.20;;;7.88;;
78895;SDS011;68284;59.124;37.910;2023-07-28T13:32:16;9.73;;;8.63;;
78895;SDS011;68284;59.124;37.910;2023-07-28T13:34:45;12.27;;;7.97;;
78895;SDS011;68284;59.124;37.910;2023-07-28T13:37:11;10.07;;;7.50;;
78895;SDS011;68284;59.124;37.910;2023-07-28T13:39:37;9.48;;;7.28;;
78895;SDS011;68284;59.124;37.910;2023-07-28T13:42:04;9.98;;;7.53;;
78895;SDS011;68284;59.124;37.910;2023-07-28T13:44:30;11.43;;;9.55;;
78895;SDS011;68284;59.124;37.910;2023-07-28T13:46:57;8.68;;;7.68;;
78895;SDS011;68284;59.124;37.910;2023-07-28T13:49:23;12.02;;;8.70;;
78895;SDS011;68284;59.124;37.910;2023-07-28T13:51:50;9.38;;;7.60;;
78895;SDS011;68284;59.124;37.910;2023-07-28T13:54:16;11.80;;;9.20;;
78895;SDS011;68284;59.124;37.910;2023-07-28T13:56:42;8.35;;;7.55;;
78895;SDS011;68284;59.124;37.910;2023-07-28T13:59:10;9.55;;;7.80;;
78895;SDS011;68284;59.124;37.910;2023-07-28T14:01:36;11.57;;;7.95;;
78895;SDS011;68284;59.124;37.910;2023-07-28T14:04:02;9.23;;;8.32;;
78895;SDS011;68284;59.124;37.910;2023-07-28T14:06:29;10.55;;;8.43;;
78895;SDS011;68284;59.124;37.910;2023-07-28T14:08:55;11.02;;;9.25;;
78895;SDS011;68284;59.124;37.910;2023-07-28T14:11:22;8.98;;;8.13;;
78895;SDS011;68284;59.124;37.910;2023-07-28T14:13:48;12.77;;;7.43;;
78895;SDS011;68284;59.124;37.910;2023-07-28T14:16:15;10.90;;;8.27;;
78895;SDS011;68284;59.124;37.910;2023-07-28T14:18:41;11.30;;;8.27;;
78895;SDS011;68284;59.124;37.910;2023-07-28T14:21:07;8.70;;;7.80;;
78895;SDS011;68284;59.124;37.910;2023-07-28T14:23:35;12.10;;;9.60;;
78895;SDS011;68284;59.124;37.910;2023-07-28T14:26:01;10.00;;;8.18;;
78895;SDS011;68284;59.124;37.910;2023-07-28T14:28:28;10.02;;;8.05;;
78895;SDS011;68284;59.124;37.910;2023-07-28T14:30:54;9.25;;;7.82;;
78895;SDS011;68284;59.124;37.910;2023-07-28T14:33:20;10.82;;;7.63;;
78895;SDS011;68284;59.124;37.910;2023-07-28T14:35:47;10.38;;;8.63;;
78895;SDS011;68284;59.124;37.910;2023-07-28T14:38:15;9.60;;;8.63;;
78895;SDS011;68284;59.124;37.910;2023-07-28T14:40:43;12.10;;;8.38;;
78895;SDS011;68284;59.124;37.910;2023-07-28T14:43:14;10.57;;;8.23;;
78895;SDS011;68284;59.124;37.910;2023-07-28T14:45:41;11.13;;;8.30;;